createdAt,value
2022-08-09T00:01:54.812Z,2.92
2022-08-09T00:04:34.347Z,3.08
2022-08-09T00:07:07.540Z,2.75
2022-08-09T00:09:39.793Z,2.90
2022-08-09T00:12:08.299Z,2.60
2022-08-09T00:14:38.517Z,3.10
2022-08-09T00:18:04.629Z,3.05
2022-08-09T00:20:01.213Z,3.00
2022-08-09T00:22:35.310Z,2.75
2022-08-09T00:25:08.349Z,2.85
2022-08-09T00:27:42.968Z,2.80
2022-08-09T00:30:24.837Z,2.78
2022-08-09T00:32:59.268Z,2.67
2022-08-09T00:35:30.068Z,2.78
2022-08-09T00:38:12.947Z,2.60
2022-08-09T00:40:40.807Z,2.90
2022-08-09T00:44:24.764Z,2.60
2022-08-09T00:46:28.401Z,2.50
2022-08-09T00:49:00.277Z,3.05
2022-08-09T00:51:33.840Z,2.53
2022-08-09T00:54:10.732Z,2.70
2022-08-09T00:56:38.665Z,2.75
2022-08-09T00:59:09.763Z,2.60
2022-08-09T01:01:44.693Z,2.60
2022-08-09T01:04:25.990Z,3.15
2022-08-09T01:07:19.393Z,2.97
2022-08-09T01:10:31.018Z,3.17
2022-08-09T01:13:31.281Z,2.88
2022-08-09T01:16:12.941Z,3.00
2022-08-09T01:18:47.398Z,3.17
2022-08-09T01:21:51.159Z,2.78
2022-08-09T01:24:27.072Z,2.70
2022-08-09T01:27:08.794Z,2.75
2022-08-09T01:29:56.229Z,2.75
2022-08-09T01:32:34.228Z,2.78
2022-08-09T01:35:38.571Z,2.70
2022-08-09T01:38:16.181Z,2.50
2022-08-09T01:41:03.151Z,2.92
2022-08-09T01:43:51.137Z,2.70
2022-08-09T01:46:42.816Z,2.83
2022-08-09T01:49:18.270Z,2.45
2022-08-09T01:51:53.484Z,2.88
2022-08-09T01:54:32.801Z,2.55
2022-08-09T01:57:09.810Z,2.70
2022-08-09T01:59:51.467Z,2.78
2022-08-09T02:02:29.953Z,2.60
2022-08-09T02:09:59.513Z,2.83
2022-08-09T02:12:48.164Z,2.50
2022-08-09T02:15:49.460Z,2.40
2022-08-09T02:18:34.471Z,2.90
2022-08-09T02:21:24.775Z,2.60
2022-08-09T02:24:12.964Z,2.75
2022-08-09T02:27:19.120Z,2.70
2022-08-09T02:31:06.210Z,2.65
2022-08-09T02:34:06.650Z,2.67
2022-08-09T02:37:04.621Z,2.55
2022-08-09T02:40:05.274Z,2.47
2022-08-09T02:42:55.594Z,2.50
2022-08-09T02:45:40.774Z,2.50
2022-08-09T02:48:30.818Z,2.20
2022-08-09T02:51:12.422Z,2.25
2022-08-09T02:54:03.148Z,2.38
2022-08-09T02:57:23.457Z,2.38
2022-08-09T03:00:26.058Z,2.58
2022-08-09T03:03:37.174Z,2.60
2022-08-09T03:06:49.235Z,2.60
2022-08-09T03:10:17.912Z,2.42
2022-08-09T03:12:35.740Z,2.30
2022-08-09T03:15:12.765Z,2.25
2022-08-09T03:17:57.769Z,2.70
2022-08-09T03:20:45.136Z,2.15
2022-08-09T03:23:32.215Z,2.40
2022-08-09T03:26:19.306Z,2.63
2022-08-09T03:29:00.742Z,2.60
2022-08-09T03:32:04.847Z,2.25
2022-08-09T03:36:14.021Z,2.60
2022-08-09T03:38:42.789Z,2.45
2022-08-09T03:41:46.084Z,2.60
2022-08-09T03:44:49.826Z,2.58
2022-08-09T03:48:51.178Z,2.30
2022-08-09T03:51:57.486Z,3.10
2022-08-09T03:54:38.898Z,2.72
2022-08-09T03:58:09.704Z,2.60
2022-08-09T04:00:57.470Z,3.10
2022-08-09T04:04:02.227Z,2.70
2022-08-09T04:06:55.515Z,2.63
2022-08-09T04:10:07.315Z,2.45
2022-08-09T04:13:44.923Z,2.40
2022-08-09T04:16:20.058Z,2.40
2022-08-09T04:19:43.078Z,2.67
2022-08-09T04:22:47.564Z,2.20
2022-08-09T04:25:53.079Z,2.85
2022-08-09T04:28:42.500Z,3.05
2022-08-09T04:31:37.610Z,3.00
2022-08-09T04:34:38.675Z,2.90
2022-08-09T04:37:20.337Z,2.53
2022-08-09T04:40:00.377Z,2.45
2022-08-09T04:42:35.605Z,2.38
2022-08-09T04:45:11.854Z,2.45
2022-08-09T04:47:58.835Z,2.08
2022-08-09T04:50:51.231Z,2.50
2022-08-09T04:53:25.489Z,2.45
2022-08-09T04:56:17.183Z,2.80
2022-08-09T04:59:06.072Z,2.60
2022-08-09T05:02:16.509Z,2.72
2022-08-09T05:05:31.543Z,2.70
2022-08-09T05:11:14.924Z,2.50
2022-08-09T05:18:39.658Z,2.60
2022-08-09T05:20:29.969Z,2.78
2022-08-09T05:30:32.759Z,3.13
2022-08-09T05:33:34.223Z,2.60
2022-08-09T05:53:00.057Z,2.30
2022-08-09T06:00:11.173Z,2.08
2022-08-09T06:08:31.246Z,2.30
2022-08-09T06:18:09.088Z,2.17
2022-08-09T06:20:39.342Z,1.92
2022-08-09T06:23:06.899Z,2.00
2022-08-09T06:25:39.707Z,1.95
2022-08-09T06:28:10.945Z,1.92
2022-08-09T06:30:43.299Z,1.80
2022-08-09T06:33:30.138Z,1.80
2022-08-09T06:35:58.902Z,1.85
2022-08-09T06:38:32.161Z,1.70
2022-08-09T06:41:18.636Z,1.70
2022-08-09T06:43:48.182Z,1.65
2022-08-09T06:46:39.675Z,1.50
2022-08-09T06:50:12.252Z,1.40
2022-08-09T06:52:18.418Z,1.80
2022-08-09T06:54:46.234Z,1.35
2022-08-09T06:57:16.187Z,1.70
2022-08-09T07:00:52.036Z,1.60
2022-08-09T07:02:36.834Z,1.52
2022-08-09T07:05:07.656Z,1.42
2022-08-09T07:07:59.922Z,1.40
2022-08-09T07:10:31.195Z,1.52
2022-08-09T07:13:00.421Z,1.70
2022-08-09T07:16:35.356Z,1.70
2022-08-09T07:18:34.135Z,1.50
2022-08-09T07:21:01.881Z,1.50
2022-08-09T07:23:29.812Z,1.50
2022-08-09T07:26:04.313Z,1.58
2022-08-09T07:28:34.633Z,1.40
2022-08-09T07:31:04.975Z,1.52
2022-08-09T07:34:01.574Z,1.33
2022-08-09T07:36:32.471Z,1.13
2022-08-09T07:39:02.224Z,1.10
2022-08-09T07:41:57.217Z,1.40
2022-08-09T07:44:52.128Z,1.45
2022-08-09T07:47:18.780Z,1.35
2022-08-09T07:50:04.661Z,1.50
2022-08-09T07:52:33.876Z,1.40
2022-08-09T07:55:09.620Z,1.30
2022-08-09T07:57:47.084Z,1.52
2022-08-09T08:00:20.858Z,1.50
2022-08-09T08:03:04.985Z,1.38
2022-08-09T08:05:39.178Z,1.50
2022-08-09T08:09:02.584Z,1.80
2022-08-09T08:12:11.194Z,1.40
2022-08-09T08:14:00.184Z,1.50
2022-08-09T08:16:31.904Z,1.60
2022-08-09T08:19:02.786Z,1.58
2022-08-09T08:21:31.400Z,1.55
2022-08-09T08:24:11.851Z,1.70
2022-08-09T08:26:54.636Z,1.70
2022-08-09T08:29:28.124Z,1.60
2022-08-09T08:32:03.927Z,1.63
2022-08-09T08:34:36.614Z,1.70
2022-08-09T08:37:05.261Z,1.48
2022-08-09T08:39:39.991Z,1.50
2022-08-09T08:42:11.974Z,1.60
2022-08-09T08:44:42.019Z,1.70
2022-08-09T08:47:14.904Z,1.73
2022-08-09T08:49:48.611Z,1.30
2022-08-09T08:52:57.566Z,1.80
2022-08-09T08:55:19.159Z,1.30
2022-08-09T08:57:57.595Z,1.60
2022-08-09T09:00:34.625Z,1.52
2022-08-09T09:03:08.708Z,1.90
2022-08-09T09:44:45.725Z,1.40
2022-08-09T09:51:38.488Z,1.42
2022-08-09T10:03:57.003Z,2.10
2022-08-09T10:08:01.023Z,1.80
2022-08-09T10:10:40.816Z,1.80
2022-08-09T10:13:43.172Z,2.22
2022-08-09T10:20:04.751Z,1.80
2022-08-09T10:22:50.933Z,2.05
2022-08-09T10:29:21.385Z,2.00
2022-08-09T10:38:56.442Z,2.05
2022-08-09T10:48:32.971Z,2.13
2022-08-09T10:51:58.385Z,2.30
2022-08-09T10:54:36.257Z,2.00
2022-08-09T12:07:03.154Z,2.05
2022-08-09T12:10:38.446Z,2.30
2022-08-09T12:14:08.502Z,2.13
2022-08-09T12:25:37.309Z,2.03
2022-08-09T12:56:12.519Z,2.10
2022-08-09T13:41:50.640Z,2.30
2022-08-09T13:52:04.980Z,2.00
2022-08-09T13:55:00.820Z,2.47
2022-08-09T14:00:50.618Z,2.10
2022-08-09T14:04:01.873Z,2.40
2022-08-09T14:07:03.659Z,1.92
2022-08-09T14:09:55.642Z,1.92
2022-08-09T14:16:17.476Z,2.25
2022-08-09T14:19:14.963Z,2.05
2022-08-09T14:22:19.931Z,2.10
2022-08-09T14:25:42.695Z,2.10
2022-08-09T14:28:33.074Z,2.17
2022-08-09T14:32:10.761Z,2.00
2022-08-09T14:34:55.743Z,1.85
2022-08-09T14:38:02.785Z,1.90
2022-08-09T14:41:34.758Z,2.10
2022-08-09T14:47:44.641Z,2.13
2022-08-09T14:50:20.232Z,2.17
2022-08-09T14:52:55.273Z,1.90
2022-08-09T14:55:49.995Z,2.08
2022-08-09T14:58:24.276Z,2.00
2022-08-09T15:01:17.169Z,1.95
2022-08-09T15:04:01.404Z,2.05
2022-08-09T15:06:57.167Z,1.95
2022-08-09T15:10:04.578Z,2.00
2022-08-09T15:12:49.854Z,2.20
2022-08-09T15:15:21.746Z,1.98
2022-08-09T15:18:04.941Z,1.90
2022-08-09T15:25:38.928Z,1.92
2022-08-09T15:37:37.685Z,1.90
2022-08-09T15:40:25.293Z,1.75
2022-08-09T15:43:09.490Z,1.83
2022-08-09T15:46:28.313Z,2.10
2022-08-09T15:48:39.636Z,1.83
2022-08-09T15:51:44.726Z,1.90
2022-08-09T15:54:20.105Z,2.00
2022-08-09T15:56:52.785Z,1.90
2022-08-09T15:59:23.465Z,1.88
2022-08-09T16:11:04.153Z,2.08
2022-08-09T16:14:02.930Z,1.90
2022-08-09T16:16:28.189Z,1.90
2022-08-09T16:27:36.029Z,1.88
2022-08-09T16:30:15.318Z,1.70
2022-08-09T16:33:11.743Z,1.73
2022-08-09T16:58:21.125Z,1.65
2022-08-09T17:10:46.687Z,1.77
2022-08-09T17:13:14.695Z,1.80
2022-08-09T17:16:00.013Z,1.75
2022-08-09T17:23:14.758Z,1.70
2022-08-09T17:25:52.953Z,1.90
2022-08-09T17:28:29.847Z,2.00
2022-08-09T17:31:38.836Z,1.70
2022-08-09T17:35:01.365Z,2.00
2022-08-09T17:37:19.263Z,1.88
2022-08-09T17:40:31.977Z,2.08
2022-08-09T17:47:18.928Z,1.98
2022-08-09T17:49:55.706Z,1.95
2022-08-09T17:53:34.820Z,2.20
2022-08-09T18:44:39.633Z,2.30
2022-08-09T19:01:32.178Z,2.42
2022-08-09T20:08:06.093Z,3.00
2022-08-09T20:16:37.555Z,2.90
2022-08-09T20:19:03.683Z,2.80
2022-08-09T20:21:54.753Z,2.80
2022-08-09T20:24:29.424Z,2.85
2022-08-09T20:27:08.414Z,2.50
2022-08-09T20:29:40.954Z,2.65
2022-08-09T20:32:31.340Z,2.70
2022-08-09T20:40:14.869Z,2.58
2022-08-09T20:42:53.280Z,2.72
2022-08-09T20:45:59.897Z,2.80
2022-08-09T20:48:21.046Z,3.20
2022-08-09T20:50:55.809Z,2.83
2022-08-09T20:53:37.173Z,2.53
2022-08-09T20:56:26.434Z,2.80
2022-08-09T20:58:58.810Z,2.80
2022-08-09T21:01:50.500Z,2.58
2022-08-09T21:05:53.508Z,2.40
2022-08-09T21:07:12.802Z,2.75
2022-08-09T21:09:45.597Z,2.42
2022-08-09T21:14:48.292Z,2.13
2022-08-09T21:18:22.166Z,2.53
2022-08-09T21:20:23.030Z,2.40
2022-08-09T21:22:54.093Z,2.92
2022-08-09T21:25:43.990Z,2.80
2022-08-09T21:28:34.771Z,2.83
2022-08-09T21:31:16.111Z,2.60
2022-08-09T21:33:50.821Z,2.70
2022-08-09T21:36:25.799Z,2.60
2022-08-09T21:38:57.481Z,2.42
2022-08-09T21:42:05.774Z,2.85
2022-08-09T21:44:33.321Z,2.60
2022-08-09T21:47:08.662Z,2.95
2022-08-09T21:49:39.779Z,2.65
2022-08-09T21:52:16.620Z,2.90
2022-08-09T21:55:03.047Z,2.70
2022-08-09T21:57:38.641Z,2.70
2022-08-09T22:00:33.676Z,3.08
2022-08-09T22:03:06.948Z,2.60
2022-08-09T22:05:42.224Z,2.60
2022-08-09T22:08:14.955Z,2.80
2022-08-09T22:11:50.136Z,2.70
2022-08-09T22:13:43.203Z,2.70
2022-08-09T22:16:12.081Z,2.60
2022-08-09T22:18:44.209Z,2.88
2022-08-09T22:21:27.377Z,2.80
2022-08-09T22:24:17.207Z,2.90
2022-08-09T22:26:51.726Z,2.78
2022-08-09T22:29:28.834Z,2.80
2022-08-09T22:32:02.258Z,2.70
2022-08-09T22:34:30.038Z,2.50
2022-08-09T22:36:58.930Z,2.65
2022-08-09T22:39:57.121Z,2.88
2022-08-09T22:42:20.902Z,2.60
2022-08-09T22:48:34.070Z,2.70
2022-08-09T22:50:29.756Z,2.50
2022-08-09T22:52:58.717Z,2.38
2022-08-09T22:55:39.688Z,3.03
2022-08-09T22:58:20.365Z,2.42
2022-08-09T23:01:05.635Z,2.42
2022-08-09T23:04:03.531Z,2.80
2022-08-09T23:06:35.753Z,3.00
2022-08-09T23:09:07.001Z,2.85
2022-08-09T23:11:34.994Z,3.08
2022-08-09T23:14:10.081Z,2.65
2022-08-09T23:16:44.881Z,3.00
2022-08-09T23:19:13.169Z,2.80
2022-08-09T23:21:40.858Z,2.70
2022-08-09T23:24:08.656Z,2.80
2022-08-09T23:26:36.985Z,2.90
2022-08-09T23:29:11.093Z,3.05
2022-08-09T23:31:38.565Z,2.60
2022-08-09T23:34:07.003Z,2.70
2022-08-09T23:36:35.313Z,2.95
2022-08-09T23:39:07.607Z,2.80
2022-08-09T23:41:35.782Z,2.60
2022-08-09T23:44:04.239Z,2.28
2022-08-09T23:46:32.279Z,2.58
2022-08-09T23:49:00.612Z,2.40
2022-08-09T23:51:28.670Z,2.60
2022-08-09T23:54:02.401Z,2.40
2022-08-09T23:56:52.508Z,2.97
2022-08-09T23:59:21.219Z,2.78
